Shun Cheng — BBUL — position and weather

sailwx.info

Track history (hours):
 
Tides and Currents Weather Stations Pressure Air Temp Water Temp Dewpoint Dewpoint Depression Visibility Wind Speed Wind Dir Waves Ship Positions

Shun Cheng

Last reported at 2014-Sep-03 04:33 UTC. Time now 2014-Sep-03 05:02 UTC.
Position N 34°40' E 135°14'.

Length 128 m; draft 7.5 m.

Type: Cargo ship. MMSI: 412949000.

Date/timePositionNaut miles runAvg speedWind from/ knotsBaromVisibWave heightAir tempDewpointWater temp
2014-Sep-03 04:33N 34°40' E 135°14'0 0.2
2014-Sep-03 03:33N 34°40' E 135°14'7 6.7
2014-Sep-03 02:33N 34°38' E 135°22'3 3.1
2014-Sep-03 01:31N 34°39' E 135°26'0 0.0
2014-Sep-03 00:31N 34°39' E 135°26'0 0.1
2014-Sep-02 23:33N 34°39' E 135°26'5 4.6
2014-Sep-02 22:33N 34°37' E 135°21'9 8.7
2014-Sep-02 21:33N 34°31' E 135°13'1211.9
2014-Sep-02 20:33N 34°22' E 135°03'1111.0
2014-Sep-02 19:33N 34°12' E 134°59'1212.2
2014-Sep-02 18:33N 33°60' E 134°59'62212.2
2014-Aug-31 15:31N 30°57' E 123°14'1312.3
2014-Aug-31 14:28N 30°58' E 122°59'2712.4
2014-Aug-31 12:18N 31°06' E 122°29'1013.0
2014-Aug-31 11:32N 31°07' E 122°17'2813.7
2014-Aug-31 09:31N 31°17' E 121°48'1110.9
2014-Aug-31 08:33N 31°22' E 121°37'9 9.4
2014-Aug-31 07:33N 31°27' E 121°28'1111.4
2014-Aug-31 06:33N 31°35' E 121°18'1312.4
2014-Aug-31 05:32N 31°44' E 121°07'1111.5
2014-Aug-31 04:33N 31°49' E 120°55'10 9.8
2014-Aug-31 03:33N 31°58' E 120°52'0 0.0
2014-Aug-31 02:12N 31°58' E 120°52'0 0.0
2014-Aug-31 01:27N 31°58' E 120°52'0 0.0
2014-Aug-31 00:34N 31°58' E 120°52'0 0.0
2014-Aug-30 23:27N 31°58' E 120°52'0 0.0
2014-Aug-30 22:33N 31°58' E 120°52'0 0.0
2014-Aug-30 21:30N 31°58' E 120°52'0 0.0
2014-Aug-30 20:33N 31°58' E 120°52'0 0.0
2014-Aug-30 19:30N 31°58' E 120°52'0 0.0
2014-Aug-30 18:33N 31°58' E 120°52'0 0.0
2014-Aug-30 17:33N 31°58' E 120°52'0 0.0
2014-Aug-30 16:27N 31°58' E 120°52'0 0.0
2014-Aug-30 15:27N 31°58' E 120°52'0 0.5
2014-Aug-30 14:33N 31°58' E 120°51'6 5.8
2014-Aug-30 13:33N 32°00' E 120°45'1111.0
2014-Aug-30 12:34N 32°01' E 120°32'7 6.9
2014-Aug-30 11:34N 31°58' E 120°25'0 0.1
2014-Aug-30 10:31N 31°58' E 120°25'0 0.0
2014-Aug-30 09:31N 31°58' E 120°25'0 0.0
2014-Aug-30 08:31N 31°58' E 120°25'0 0.0
2014-Aug-30 07:31N 31°58' E 120°25'0 0.0
2014-Aug-30 06:28N 31°58' E 120°25'0 0.0
2014-Aug-30 05:25N 31°58' E 120°25'0 0.0
2014-Aug-30 04:31N 31°58' E 120°25'0 0.0
2014-Aug-30 03:31N 31°58' E 120°25'0 0.0
2014-Aug-30 02:31N 31°58' E 120°25'0 0.0
2014-Aug-30 01:31N 31°58' E 120°25'0 0.0
2014-Aug-30 00:34N 31°58' E 120°25'0 0.0
2014-Aug-29 23:31N 31°58' E 120°25'0 0.0
2014-Aug-29 22:31N 31°58' E 120°25'0 0.0
2014-Aug-29 21:24N 31°58' E 120°25'0 0.0
2014-Aug-29 20:31N 31°58' E 120°25'0 0.0
2014-Aug-29 19:31N 31°58' E 120°25'0 0.0
2014-Aug-29 18:30N 31°58' E 120°25'0 0.0
2014-Aug-29 17:30N 31°58' E 120°25'0 0.0
2014-Aug-29 16:30N 31°58' E 120°25'0 0.0
2014-Aug-29 15:24N 31°58' E 120°25'0 0.0
2014-Aug-29 14:27N 31°58' E 120°25'2 1.9
2014-Aug-29 13:33N 31°58' E 120°23'8 7.9
2014-Aug-29 12:33N 31°56' E 120°14'1211.6
2014-Aug-29 11:33N 31°58' E 120°01'1212.0
2014-Aug-29 10:33N 32°09' E 119°54'4 0.1
2014-Aug-28 00:19N 32°13' E 119°54'7 8.5
2014-Aug-27 23:33N 32°06' E 119°55'9 8.7
2014-Aug-27 22:32N 31°59' E 120°01'9 9.3
2014-Aug-27 21:33N 31°56' E 120°11'1010.2
2014-Aug-27 20:33N 31°60' E 120°22'1010.2
2014-Aug-27 19:33N 32°03' E 120°33'1111.2
2014-Aug-27 18:33N 32°01' E 120°46'1211.6
2014-Aug-27 17:33N 31°51' E 120°54'9 8.9
2014-Aug-27 16:32N 31°46' E 121°03'1211.8
2014-Aug-27 15:31N 31°39' E 121°14'1111.8
2014-Aug-27 14:33N 31°31' E 121°24'1010.0
2014-Aug-27 13:33N 31°25' E 121°32'9 9.3
2014-Aug-27 12:33N 31°20' E 121°42'93 5.4
2014-Aug-26 19:24N 30°57' E 123°27'1212.4
2014-Aug-26 18:23N 30°58' E 123°41'1012.3
2014-Aug-26 17:33N 30°60' E 123°53'1812.7
2014-Aug-26 16:06N 30°57' E 124°15'  
Track history (hours):
 
Tides and Currents Weather Stations Pressure Air Temp Water Temp Dewpoint Dewpoint Depression Visibility Wind Speed Wind Dir Waves Ship Positions

Shun Cheng

Last reported at 2014-Sep-03 04:33 UTC. Time now 2014-Sep-03 05:02 UTC.
Position N 34°40' E 135°14'.

Length 128 m; draft 7.5 m.

Type: Cargo ship. MMSI: 412949000.

Date/timePositionNaut miles runAvg speedWind from/ knotsBaromVisibWave heightAir tempDewpointWater temp
2014-Sep-03 04:33N 34°40' E 135°14'0 0.2
2014-Sep-03 03:33N 34°40' E 135°14'7 6.7
2014-Sep-03 02:33N 34°38' E 135°22'3 3.1
2014-Sep-03 01:31N 34°39' E 135°26'0 0.0
2014-Sep-03 00:31N 34°39' E 135°26'0 0.1
2014-Sep-02 23:33N 34°39' E 135°26'5 4.6
2014-Sep-02 22:33N 34°37' E 135°21'9 8.7
2014-Sep-02 21:33N 34°31' E 135°13'1211.9
2014-Sep-02 20:33N 34°22' E 135°03'1111.0
2014-Sep-02 19:33N 34°12' E 134°59'1212.2
2014-Sep-02 18:33N 33°60' E 134°59'62212.2
2014-Aug-31 15:31N 30°57' E 123°14'1312.3
2014-Aug-31 14:28N 30°58' E 122°59'2712.4
2014-Aug-31 12:18N 31°06' E 122°29'1013.0
2014-Aug-31 11:32N 31°07' E 122°17'2813.7
2014-Aug-31 09:31N 31°17' E 121°48'1110.9
2014-Aug-31 08:33N 31°22' E 121°37'9 9.4
2014-Aug-31 07:33N 31°27' E 121°28'1111.4
2014-Aug-31 06:33N 31°35' E 121°18'1312.4
2014-Aug-31 05:32N 31°44' E 121°07'1111.5
2014-Aug-31 04:33N 31°49' E 120°55'10 9.8
2014-Aug-31 03:33N 31°58' E 120°52'0 0.0
2014-Aug-31 02:12N 31°58' E 120°52'0 0.0
2014-Aug-31 01:27N 31°58' E 120°52'0 0.0
2014-Aug-31 00:34N 31°58' E 120°52'0 0.0
2014-Aug-30 23:27N 31°58' E 120°52'0 0.0
2014-Aug-30 22:33N 31°58' E 120°52'0 0.0
2014-Aug-30 21:30N 31°58' E 120°52'0 0.0
2014-Aug-30 20:33N 31°58' E 120°52'0 0.0
2014-Aug-30 19:30N 31°58' E 120°52'0 0.0
2014-Aug-30 18:33N 31°58' E 120°52'0 0.0
2014-Aug-30 17:33N 31°58' E 120°52'0 0.0
2014-Aug-30 16:27N 31°58' E 120°52'0 0.0
2014-Aug-30 15:27N 31°58' E 120°52'0 0.5
2014-Aug-30 14:33N 31°58' E 120°51'6 5.8
2014-Aug-30 13:33N 32°00' E 120°45'1111.0
2014-Aug-30 12:34N 32°01' E 120°32'7 6.9
2014-Aug-30 11:34N 31°58' E 120°25'0 0.1
2014-Aug-30 10:31N 31°58' E 120°25'0 0.0
2014-Aug-30 09:31N 31°58' E 120°25'0 0.0
2014-Aug-30 08:31N 31°58' E 120°25'0 0.0
2014-Aug-30 07:31N 31°58' E 120°25'0 0.0
2014-Aug-30 06:28N 31°58' E 120°25'0 0.0
2014-Aug-30 05:25N 31°58' E 120°25'0 0.0
2014-Aug-30 04:31N 31°58' E 120°25'0 0.0
2014-Aug-30 03:31N 31°58' E 120°25'0 0.0
2014-Aug-30 02:31N 31°58' E 120°25'0 0.0
2014-Aug-30 01:31N 31°58' E 120°25'0 0.0
2014-Aug-30 00:34N 31°58' E 120°25'0 0.0
2014-Aug-29 23:31N 31°58' E 120°25'0 0.0
2014-Aug-29 22:31N 31°58' E 120°25'0 0.0
2014-Aug-29 21:24N 31°58' E 120°25'0 0.0
2014-Aug-29 20:31N 31°58' E 120°25'0 0.0
2014-Aug-29 19:31N 31°58' E 120°25'0 0.0
2014-Aug-29 18:30N 31°58' E 120°25'0 0.0
2014-Aug-29 17:30N 31°58' E 120°25'0 0.0
2014-Aug-29 16:30N 31°58' E 120°25'0 0.0
2014-Aug-29 15:24N 31°58' E 120°25'0 0.0
2014-Aug-29 14:27N 31°58' E 120°25'2 1.9
2014-Aug-29 13:33N 31°58' E 120°23'8 7.9
2014-Aug-29 12:33N 31°56' E 120°14'1211.6
2014-Aug-29 11:33N 31°58' E 120°01'1212.0
2014-Aug-29 10:33N 32°09' E 119°54'4 0.1
2014-Aug-28 00:19N 32°13' E 119°54'7 8.5
2014-Aug-27 23:33N 32°06' E 119°55'9 8.7
2014-Aug-27 22:32N 31°59' E 120°01'9 9.3
2014-Aug-27 21:33N 31°56' E 120°11'1010.2
2014-Aug-27 20:33N 31°60' E 120°22'1010.2
2014-Aug-27 19:33N 32°03' E 120°33'1111.2
2014-Aug-27 18:33N 32°01' E 120°46'1211.6
2014-Aug-27 17:33N 31°51' E 120°54'9 8.9
2014-Aug-27 16:32N 31°46' E 121°03'1211.8
2014-Aug-27 15:31N 31°39' E 121°14'1111.8
2014-Aug-27 14:33N 31°31' E 121°24'1010.0
2014-Aug-27 13:33N 31°25' E 121°32'9 9.3
2014-Aug-27 12:33N 31°20' E 121°42'93 5.4
2014-Aug-26 19:24N 30°57' E 123°27'1212.4
2014-Aug-26 18:23N 30°58' E 123°41'1012.3
2014-Aug-26 17:33N 30°60' E 123°53'1812.7
2014-Aug-26 16:06N 30°57' E 124°15'  

Dump ship's entire track history